sensor_id;sensor_type;location;lat;lon;timestamp;P1;durP1;ratioP1;P2;durP2;ratioP2
15171;SDS011;7686;52.184;9.280;2023-04-29T00:00:02;0.90;;;0.88;;
15171;SDS011;7686;52.184;9.280;2023-04-29T00:02:32;1.30;;;1.00;;
15171;SDS011;7686;52.184;9.280;2023-04-29T00:04:59;0.80;;;0.80;;
15171;SDS011;7686;52.184;9.280;2023-04-29T00:07:26;1.20;;;1.00;;
15171;SDS011;7686;52.184;9.280;2023-04-29T00:09:53;1.02;;;0.93;;
15171;SDS011;7686;52.184;9.280;2023-04-29T00:12:19;0.90;;;0.90;;
15171;SDS011;7686;52.184;9.280;2023-04-29T00:14:46;1.73;;;1.00;;
15171;SDS011;7686;52.184;9.280;2023-04-29T00:17:12;1.00;;;0.90;;
15171;SDS011;7686;52.184;9.280;2023-04-29T00:19:40;1.00;;;0.90;;
15171;SDS011;7686;52.184;9.280;2023-04-29T00:22:06;1.00;;;0.90;;
15171;SDS011;7686;52.184;9.280;2023-04-29T00:24:33;0.95;;;0.90;;
15171;SDS011;7686;52.184;9.280;2023-04-29T00:27:00;1.00;;;0.90;;
15171;SDS011;7686;52.184;9.280;2023-04-29T00:29:27;1.10;;;1.00;;
15171;SDS011;7686;52.184;9.280;2023-04-29T00:31:54;0.77;;;0.77;;
15171;SDS011;7686;52.184;9.280;2023-04-29T00:34:21;0.90;;;0.90;;
15171;SDS011;7686;52.184;9.280;2023-04-29T00:36:47;1.50;;;0.93;;
15171;SDS011;7686;52.184;9.280;2023-04-29T00:39:14;0.88;;;0.75;;
15171;SDS011;7686;52.184;9.280;2023-04-29T00:41:41;1.17;;;1.02;;
15171;SDS011;7686;52.184;9.280;2023-04-29T00:44:07;0.95;;;0.90;;
15171;SDS011;7686;52.184;9.280;2023-04-29T00:46:35;1.42;;;0.93;;
15171;SDS011;7686;52.184;9.280;2023-04-29T00:49:02;1.80;;;1.00;;
15171;SDS011;7686;52.184;9.280;2023-04-29T00:51:29;1.02;;;0.90;;
15171;SDS011;7686;52.184;9.280;2023-04-29T00:53:55;0.90;;;0.90;;
15171;SDS011;7686;52.184;9.280;2023-04-29T00:56:22;0.88;;;0.88;;
15171;SDS011;7686;52.184;9.280;2023-04-29T00:58:49;1.13;;;0.90;;
15171;SDS011;7686;52.184;9.280;2023-04-29T01:01:18;1.10;;;0.93;;
15171;SDS011;7686;52.184;9.280;2023-04-29T01:03:45;1.00;;;0.90;;
15171;SDS011;7686;52.184;9.280;2023-04-29T01:06:24;1.20;;;1.10;;
15171;SDS011;7686;52.184;9.280;2023-04-29T01:14:34;1.45;;;0.90;;
15171;SDS011;7686;52.184;9.280;2023-04-29T01:17:10;1.08;;;1.00;;
15171;SDS011;7686;52.184;9.280;2023-04-29T01:22:15;0.90;;;0.90;;
15171;SDS011;7686;52.184;9.280;2023-04-29T01:24:47;1.10;;;0.88;;
15171;SDS011;7686;52.184;9.280;2023-04-29T01:33:34;1.02;;;0.93;;
15171;SDS011;7686;52.184;9.280;2023-04-29T01:36:25;1.63;;;1.10;;
15171;SDS011;7686;52.184;9.280;2023-04-29T01:39:06;0.82;;;0.82;;
15171;SDS011;7686;52.184;9.280;2023-04-29T01:41:43;1.15;;;1.05;;
15171;SDS011;7686;52.184;9.280;2023-04-29T01:44:21;1.10;;;1.00;;
15171;SDS011;7686;52.184;9.280;2023-04-29T01:46:50;1.15;;;0.98;;
15171;SDS011;7686;52.184;9.280;2023-04-29T01:49:25;1.52;;;1.15;;
15171;SDS011;7686;52.184;9.280;2023-04-29T01:51:52;1.50;;;1.20;;
15171;SDS011;7686;52.184;9.280;2023-04-29T01:54:19;1.35;;;1.17;;
15171;SDS011;7686;52.184;9.280;2023-04-29T01:56:47;1.38;;;1.00;;
15171;SDS011;7686;52.184;9.280;2023-04-29T01:59:14;1.42;;;1.13;;
15171;SDS011;7686;52.184;9.280;2023-04-29T02:01:40;1.40;;;1.10;;
15171;SDS011;7686;52.184;9.280;2023-04-29T02:04:07;1.70;;;1.27;;
15171;SDS011;7686;52.184;9.280;2023-04-29T02:06:34;1.02;;;1.00;;
15171;SDS011;7686;52.184;9.280;2023-04-29T02:09:00;1.45;;;1.10;;
15171;SDS011;7686;52.184;9.280;2023-04-29T02:11:27;1.00;;;0.95;;
15171;SDS011;7686;52.184;9.280;2023-04-29T02:13:53;1.95;;;1.10;;
15171;SDS011;7686;52.184;9.280;2023-04-29T02:16:20;1.25;;;1.08;;
15171;SDS011;7686;52.184;9.280;2023-04-29T02:18:48;1.65;;;1.10;;
15171;SDS011;7686;52.184;9.280;2023-04-29T02:21:14;1.45;;;1.10;;
15171;SDS011;7686;52.184;9.280;2023-04-29T02:23:41;1.40;;;1.15;;
15171;SDS011;7686;52.184;9.280;2023-04-29T02:26:07;1.00;;;1.00;;
15171;SDS011;7686;52.184;9.280;2023-04-29T02:28:35;1.55;;;1.13;;
15171;SDS011;7686;52.184;9.280;2023-04-29T02:31:02;1.20;;;1.10;;
15171;SDS011;7686;52.184;9.280;2023-04-29T02:33:29;1.00;;;1.00;;
15171;SDS011;7686;52.184;9.280;2023-04-29T02:35:55;0.88;;;0.88;;
15171;SDS011;7686;52.184;9.280;2023-04-29T02:38:22;1.15;;;1.05;;
15171;SDS011;7686;52.184;9.280;2023-04-29T02:40:48;1.13;;;1.02;;
15171;SDS011;7686;52.184;9.280;2023-04-29T02:43:15;1.02;;;0.98;;
15171;SDS011;7686;52.184;9.280;2023-04-29T02:45:42;1.08;;;0.98;;
15171;SDS011;7686;52.184;9.280;2023-04-29T02:48:08;0.95;;;0.93;;
15171;SDS011;7686;52.184;9.280;2023-04-29T02:50:35;1.13;;;1.02;;
15171;SDS011;7686;52.184;9.280;2023-04-29T02:53:01;1.70;;;1.02;;
15171;SDS011;7686;52.184;9.280;2023-04-29T02:55:28;1.33;;;1.02;;
15171;SDS011;7686;52.184;9.280;2023-04-29T02:57:55;1.08;;;1.00;;
15171;SDS011;7686;52.184;9.280;2023-04-29T03:00:21;1.13;;;1.02;;
15171;SDS011;7686;52.184;9.280;2023-04-29T03:02:49;1.67;;;1.05;;
15171;SDS011;7686;52.184;9.280;2023-04-29T03:05:15;0.95;;;0.93;;
15171;SDS011;7686;52.184;9.280;2023-04-29T03:07:42;0.93;;;0.93;;
15171;SDS011;7686;52.184;9.280;2023-04-29T03:10:09;1.00;;;1.00;;
15171;SDS011;7686;52.184;9.280;2023-04-29T03:12:37;0.90;;;0.90;;
15171;SDS011;7686;52.184;9.280;2023-04-29T03:15:05;0.90;;;0.90;;
15171;SDS011;7686;52.184;9.280;2023-04-29T03:17:33;0.90;;;0.90;;
15171;SDS011;7686;52.184;9.280;2023-04-29T03:20:00;0.80;;;0.80;;
15171;SDS011;7686;52.184;9.280;2023-04-29T03:22:26;0.95;;;0.90;;
15171;SDS011;7686;52.184;9.280;2023-04-29T03:24:53;1.10;;;1.00;;
15171;SDS011;7686;52.184;9.280;2023-04-29T03:27:19;0.82;;;0.82;;
15171;SDS011;7686;52.184;9.280;2023-04-29T03:29:46;1.13;;;0.90;;
15171;SDS011;7686;52.184;9.280;2023-04-29T03:32:13;0.80;;;0.80;;
15171;SDS011;7686;52.184;9.280;2023-04-29T03:34:40;0.85;;;0.85;;
15171;SDS011;7686;52.184;9.280;2023-04-29T03:37:06;1.35;;;0.90;;
15171;SDS011;7686;52.184;9.280;2023-04-29T03:39:33;0.95;;;0.85;;
15171;SDS011;7686;52.184;9.280;2023-04-29T03:42:00;0.98;;;0.88;;
15171;SDS011;7686;52.184;9.280;2023-04-29T03:44:28;0.80;;;0.80;;
15171;SDS011;7686;52.184;9.280;2023-04-29T03:46:54;0.80;;;0.80;;
15171;SDS011;7686;52.184;9.280;2023-04-29T03:49:21;0.80;;;0.80;;
15171;SDS011;7686;52.184;9.280;2023-04-29T03:51:48;1.13;;;1.02;;
15171;SDS011;7686;52.184;9.280;2023-04-29T03:54:15;0.90;;;0.90;;
15171;SDS011;7686;52.184;9.280;2023-04-29T03:56:42;0.80;;;0.80;;
15171;SDS011;7686;52.184;9.280;2023-04-29T03:59:08;1.05;;;0.93;;
15171;SDS011;7686;52.184;9.280;2023-04-29T04:01:35;1.10;;;1.00;;
15171;SDS011;7686;52.184;9.280;2023-04-29T04:04:02;0.80;;;0.80;;
15171;SDS011;7686;52.184;9.280;2023-04-29T04:06:29;0.98;;;0.90;;
15171;SDS011;7686;52.184;9.280;2023-04-29T04:08:56;1.33;;;1.00;;
15171;SDS011;7686;52.184;9.280;2023-04-29T04:11:23;0.90;;;0.90;;
15171;SDS011;7686;52.184;9.280;2023-04-29T04:13:49;1.10;;;1.00;;
15171;SDS011;7686;52.184;9.280;2023-04-29T04:16:17;0.80;;;0.73;;
15171;SDS011;7686;52.184;9.280;2023-04-29T04:18:43;0.80;;;0.80;;
15171;SDS011;7686;52.184;9.280;2023-04-29T04:21:10;0.90;;;0.90;;
15171;SDS011;7686;52.184;9.280;2023-04-29T04:23:37;1.00;;;0.90;;
15171;SDS011;7686;52.184;9.280;2023-04-29T04:26:07;1.27;;;1.00;;
15171;SDS011;7686;52.184;9.280;2023-04-29T04:28:34;0.90;;;0.90;;
15171;SDS011;7686;52.184;9.280;2023-04-29T04:31:00;1.20;;;1.10;;
15171;SDS011;7686;52.184;9.280;2023-04-29T04:33:27;1.27;;;1.10;;
15171;SDS011;7686;52.184;9.280;2023-04-29T04:35:54;1.02;;;0.95;;
15171;SDS011;7686;52.184;9.280;2023-04-29T04:38:20;1.33;;;1.00;;
15171;SDS011;7686;52.184;9.280;2023-04-29T04:40:50;1.17;;;1.00;;
15171;SDS011;7686;52.184;9.280;2023-04-29T04:43:17;1.10;;;1.00;;
15171;SDS011;7686;52.184;9.280;2023-04-29T04:45:44;1.20;;;1.10;;
15171;SDS011;7686;52.184;9.280;2023-04-29T04:48:10;1.25;;;1.00;;
15171;SDS011;7686;52.184;9.280;2023-04-29T04:50:37;1.15;;;1.00;;
15171;SDS011;7686;52.184;9.280;2023-04-29T04:53:04;1.20;;;1.10;;
15171;SDS011;7686;52.184;9.280;2023-04-29T04:55:31;1.10;;;1.00;;
15171;SDS011;7686;52.184;9.280;2023-04-29T04:57:58;1.35;;;1.10;;
15171;SDS011;7686;52.184;9.280;2023-04-29T05:00:25;1.17;;;1.08;;
15171;SDS011;7686;52.184;9.280;2023-04-29T05:02:52;1.13;;;1.02;;
15171;SDS011;7686;52.184;9.280;2023-04-29T05:05:19;1.83;;;1.30;;
15171;SDS011;7686;52.184;9.280;2023-04-29T05:07:46;1.27;;;1.05;;
15171;SDS011;7686;52.184;9.280;2023-04-29T05:10:12;0.90;;;0.90;;
15171;SDS011;7686;52.184;9.280;2023-04-29T05:12:39;1.80;;;1.20;;
15171;SDS011;7686;52.184;9.280;2023-04-29T05:15:06;1.35;;;1.02;;
15171;SDS011;7686;52.184;9.280;2023-04-29T05:17:33;1.17;;;1.00;;
15171;SDS011;7686;52.184;9.280;2023-04-29T05:20:01;1.10;;;1.00;;
15171;SDS011;7686;52.184;9.280;2023-04-29T05:22:28;1.30;;;1.10;;
15171;SDS011;7686;52.184;9.280;2023-04-29T05:24:55;1.10;;;1.00;;
15171;SDS011;7686;52.184;9.280;2023-04-29T05:27:28;1.38;;;1.10;;
15171;SDS011;7686;52.184;9.280;2023-04-29T05:29:54;2.15;;;1.30;;
15171;SDS011;7686;52.184;9.280;2023-04-29T05:32:22;1.70;;;1.23;;
15171;SDS011;7686;52.184;9.280;2023-04-29T05:34:48;1.25;;;1.15;;
15171;SDS011;7686;52.184;9.280;2023-04-29T05:37:15;1.30;;;1.20;;
15171;SDS011;7686;52.184;9.280;2023-04-29T05:39:42;1.70;;;1.30;;
15171;SDS011;7686;52.184;9.280;2023-04-29T05:42:08;2.03;;;1.30;;
15171;SDS011;7686;52.184;9.280;2023-04-29T05:44:35;1.80;;;1.50;;
15171;SDS011;7686;52.184;9.280;2023-04-29T05:47:01;1.40;;;1.20;;
15171;SDS011;7686;52.184;9.280;2023-04-29T05:49:28;1.75;;;1.35;;
15171;SDS011;7686;52.184;9.280;2023-04-29T05:51:55;1.40;;;1.20;;
15171;SDS011;7686;52.184;9.280;2023-04-29T05:54:22;1.50;;;1.20;;
15171;SDS011;7686;52.184;9.280;2023-04-29T05:56:48;2.00;;;1.40;;
15171;SDS011;7686;52.184;9.280;2023-04-29T05:59:15;1.63;;;1.40;;
15171;SDS011;7686;52.184;9.280;2023-04-29T06:01:41;1.23;;;1.13;;
15171;SDS011;7686;52.184;9.280;2023-04-29T06:04:08;1.40;;;1.30;;
15171;SDS011;7686;52.184;9.280;2023-04-29T06:06:35;1.75;;;1.38;;
15171;SDS011;7686;52.184;9.280;2023-04-29T06:09:02;1.50;;;1.13;;
15171;SDS011;7686;52.184;9.280;2023-04-29T06:11:35;1.88;;;1.30;;
15171;SDS011;7686;52.184;9.280;2023-04-29T06:14:02;1.60;;;1.30;;
15171;SDS011;7686;52.184;9.280;2023-04-29T06:16:29;1.88;;;1.13;;
15171;SDS011;7686;52.184;9.280;2023-04-29T06:18:55;1.48;;;1.38;;
15171;SDS011;7686;52.184;9.280;2023-04-29T06:21:22;2.08;;;1.35;;
15171;SDS011;7686;52.184;9.280;2023-04-29T06:23:49;1.20;;;1.10;;
15171;SDS011;7686;52.184;9.280;2023-04-29T06:26:15;1.90;;;1.40;;
15171;SDS011;7686;52.184;9.280;2023-04-29T06:28:42;2.17;;;1.27;;
15171;SDS011;7686;52.184;9.280;2023-04-29T06:31:09;1.48;;;1.25;;
15171;SDS011;7686;52.184;9.280;2023-04-29T06:33:35;1.63;;;1.30;;
15171;SDS011;7686;52.184;9.280;2023-04-29T06:36:02;1.20;;;1.10;;
15171;SDS011;7686;52.184;9.280;2023-04-29T06:38:29;2.22;;;1.30;;
15171;SDS011;7686;52.184;9.280;2023-04-29T06:40:56;1.40;;;1.20;;
15171;SDS011;7686;52.184;9.280;2023-04-29T06:43:26;1.40;;;1.20;;
15171;SDS011;7686;52.184;9.280;2023-04-29T06:45:52;2.03;;;1.30;;
15171;SDS011;7686;52.184;9.280;2023-04-29T06:48:19;1.48;;;1.20;;
15171;SDS011;7686;52.184;9.280;2023-04-29T06:50:49;1.70;;;1.38;;
15171;SDS011;7686;52.184;9.280;2023-04-29T06:53:16;1.45;;;1.27;;
15171;SDS011;7686;52.184;9.280;2023-04-29T06:55:43;2.30;;;1.45;;
15171;SDS011;7686;52.184;9.280;2023-04-29T06:58:11;1.92;;;1.40;;
15171;SDS011;7686;52.184;9.280;2023-04-29T07:00:39;1.35;;;1.20;;
15171;SDS011;7686;52.184;9.280;2023-04-29T07:03:06;1.38;;;1.20;;
15171;SDS011;7686;52.184;9.280;2023-04-29T07:05:33;3.60;;;1.27;;
15171;SDS011;7686;52.184;9.280;2023-04-29T07:08:00;1.77;;;1.30;;
15171;SDS011;7686;52.184;9.280;2023-04-29T07:10:26;2.75;;;1.30;;
15171;SDS011;7686;52.184;9.280;2023-04-29T07:12:53;2.17;;;1.25;;
15171;SDS011;7686;52.184;9.280;2023-04-29T07:15:20;1.65;;;1.33;;
15171;SDS011;7686;52.184;9.280;2023-04-29T07:17:46;1.63;;;1.20;;
15171;SDS011;7686;52.184;9.280;2023-04-29T07:20:13;1.55;;;1.13;;
15171;SDS011;7686;52.184;9.280;2023-04-29T07:22:40;1.20;;;1.10;;
15171;SDS011;7686;52.184;9.280;2023-04-29T07:25:07;1.30;;;1.10;;
15171;SDS011;7686;52.184;9.280;2023-04-29T07:27:34;1.38;;;1.10;;
15171;SDS011;7686;52.184;9.280;2023-04-29T07:30:01;2.28;;;1.10;;
15171;SDS011;7686;52.184;9.280;2023-04-29T07:32:28;2.40;;;1.20;;
15171;SDS011;7686;52.184;9.280;2023-04-29T07:34:57;1.70;;;1.20;;
15171;SDS011;7686;52.184;9.280;2023-04-29T07:37:24;1.60;;;1.20;;
15171;SDS011;7686;52.184;9.280;2023-04-29T07:39:50;1.70;;;1.13;;
15171;SDS011;7686;52.184;9.280;2023-04-29T07:42:17;2.00;;;1.48;;
15171;SDS011;7686;52.184;9.280;2023-04-29T07:44:44;2.22;;;1.20;;
15171;SDS011;7686;52.184;9.280;2023-04-29T07:47:11;1.30;;;1.20;;
15171;SDS011;7686;52.184;9.280;2023-04-29T07:49:37;3.40;;;1.27;;
15171;SDS011;7686;52.184;9.280;2023-04-29T07:52:04;1.65;;;1.20;;
15171;SDS011;7686;52.184;9.280;2023-04-29T07:54:35;2.15;;;1.17;;
15171;SDS011;7686;52.184;9.280;2023-04-29T07:57:02;2.00;;;1.30;;
15171;SDS011;7686;52.184;9.280;2023-04-29T07:59:30;1.80;;;1.23;;
15171;SDS011;7686;52.184;9.280;2023-04-29T08:01:57;1.40;;;1.13;;
15171;SDS011;7686;52.184;9.280;2023-04-29T08:04:23;1.20;;;1.10;;
15171;SDS011;7686;52.184;9.280;2023-04-29T08:06:50;1.63;;;1.20;;
15171;SDS011;7686;52.184;9.280;2023-04-29T08:09:17;1.55;;;1.23;;
15171;SDS011;7686;52.184;9.280;2023-04-29T08:11:44;3.50;;;1.25;;
15171;SDS011;7686;52.184;9.280;2023-04-29T08:14:10;2.50;;;1.20;;
15171;SDS011;7686;52.184;9.280;2023-04-29T08:16:37;1.17;;;1.08;;
15171;SDS011;7686;52.184;9.280;2023-04-29T08:19:04;2.38;;;1.20;;
15171;SDS011;7686;52.184;9.280;2023-04-29T08:21:31;3.33;;;1.30;;
15171;SDS011;7686;52.184;9.280;2023-04-29T08:23:57;1.48;;;1.20;;
15171;SDS011;7686;52.184;9.280;2023-04-29T08:26:24;1.67;;;1.30;;
15171;SDS011;7686;52.184;9.280;2023-04-29T08:28:51;1.92;;;1.10;;
15171;SDS011;7686;52.184;9.280;2023-04-29T08:31:18;2.00;;;1.40;;
15171;SDS011;7686;52.184;9.280;2023-04-29T08:33:46;1.48;;;1.20;;
15171;SDS011;7686;52.184;9.280;2023-04-29T08:36:13;2.55;;;1.17;;
15171;SDS011;7686;52.184;9.280;2023-04-29T08:38:40;1.17;;;1.08;;
15171;SDS011;7686;52.184;9.280;2023-04-29T08:41:07;2.03;;;1.30;;
15171;SDS011;7686;52.184;9.280;2023-04-29T08:43:36;2.05;;;1.17;;
15171;SDS011;7686;52.184;9.280;2023-04-29T08:46:06;3.42;;;1.30;;
15171;SDS011;7686;52.184;9.280;2023-04-29T08:48:33;2.00;;;1.20;;
15171;SDS011;7686;52.184;9.280;2023-04-29T08:51:01;1.33;;;1.05;;
15171;SDS011;7686;52.184;9.280;2023-04-29T08:53:28;2.22;;;1.10;;
15171;SDS011;7686;52.184;9.280;2023-04-29T08:55:56;1.95;;;1.38;;
15171;SDS011;7686;52.184;9.280;2023-04-29T08:58:28;1.75;;;1.13;;
15171;SDS011;7686;52.184;9.280;2023-04-29T09:00:59;1.92;;;1.20;;
15171;SDS011;7686;52.184;9.280;2023-04-29T09:03:29;2.13;;;1.08;;
15171;SDS011;7686;52.184;9.280;2023-04-29T09:06:02;1.63;;;1.20;;
15171;SDS011;7686;52.184;9.280;2023-04-29T09:08:31;1.48;;;1.20;;
15171;SDS011;7686;52.184;9.280;2023-04-29T09:10:58;1.88;;;1.30;;
15171;SDS011;7686;52.184;9.280;2023-04-29T09:13:26;1.42;;;1.20;;
15171;SDS011;7686;52.184;9.280;2023-04-29T09:15:56;1.77;;;1.15;;
15171;SDS011;7686;52.184;9.280;2023-04-29T09:21:12;2.63;;;1.25;;
15171;SDS011;7686;52.184;9.280;2023-04-29T09:23:47;1.77;;;1.20;;
15171;SDS011;7686;52.184;9.280;2023-04-29T09:26:18;1.65;;;1.30;;
15171;SDS011;7686;52.184;9.280;2023-04-29T09:28:45;1.77;;;1.30;;
15171;SDS011;7686;52.184;9.280;2023-04-29T09:31:13;2.30;;;1.30;;
15171;SDS011;7686;52.184;9.280;2023-04-29T09:33:53;3.22;;;1.40;;
15171;SDS011;7686;52.184;9.280;2023-04-29T09:36:33;2.95;;;1.35;;
15171;SDS011;7686;52.184;9.280;2023-04-29T09:39:04;2.05;;;1.13;;
15171;SDS011;7686;52.184;9.280;2023-04-29T09:41:37;1.33;;;1.02;;
15171;SDS011;7686;52.184;9.280;2023-04-29T09:44:05;1.92;;;1.30;;
15171;SDS011;7686;52.184;9.280;2023-04-29T09:46:33;2.42;;;1.10;;
15171;SDS011;7686;52.184;9.280;2023-04-29T09:49:02;2.95;;;1.30;;
15171;SDS011;7686;52.184;9.280;2023-04-29T09:51:31;2.90;;;1.23;;
15171;SDS011;7686;52.184;9.280;2023-04-29T09:53:59;1.98;;;1.25;;
15171;SDS011;7686;52.184;9.280;2023-04-29T09:56:26;2.28;;;1.30;;
15171;SDS011;7686;52.184;9.280;2023-04-29T09:58:55;3.05;;;1.30;;
15171;SDS011;7686;52.184;9.280;2023-04-29T10:01:33;1.85;;;1.20;;
15171;SDS011;7686;52.184;9.280;2023-04-29T10:04:01;1.90;;;1.30;;
15171;SDS011;7686;52.184;9.280;2023-04-29T10:06:29;2.40;;;1.42;;
15171;SDS011;7686;52.184;9.280;2023-04-29T10:08:56;5.15;;;1.48;;
15171;SDS011;7686;52.184;9.280;2023-04-29T10:11:23;5.18;;;1.25;;
15171;SDS011;7686;52.184;9.280;2023-04-29T10:13:49;2.78;;;1.40;;
15171;SDS011;7686;52.184;9.280;2023-04-29T10:18:59;3.00;;;1.40;;
15171;SDS011;7686;52.184;9.280;2023-04-29T10:21:29;2.38;;;1.40;;
15171;SDS011;7686;52.184;9.280;2023-04-29T10:23:57;2.05;;;1.23;;
15171;SDS011;7686;52.184;9.280;2023-04-29T10:26:26;3.30;;;1.45;;
15171;SDS011;7686;52.184;9.280;2023-04-29T10:28:54;2.67;;;1.42;;
15171;SDS011;7686;52.184;9.280;2023-04-29T10:31:24;3.47;;;1.40;;
15171;SDS011;7686;52.184;9.280;2023-04-29T10:33:55;5.53;;;1.63;;
15171;SDS011;7686;52.184;9.280;2023-04-29T10:36:24;4.90;;;1.25;;
15171;SDS011;7686;52.184;9.280;2023-04-29T10:38:54;3.40;;;1.40;;
15171;SDS011;7686;52.184;9.280;2023-04-29T10:41:29;2.95;;;1.55;;
15171;SDS011;7686;52.184;9.280;2023-04-29T10:44:02;6.32;;;1.40;;
15171;SDS011;7686;52.184;9.280;2023-04-29T10:46:29;8.55;;;1.80;;
15171;SDS011;7686;52.184;9.280;2023-04-29T10:48:59;7.00;;;2.03;;
15171;SDS011;7686;52.184;9.280;2023-04-29T10:52:02;5.20;;;2.05;;
15171;SDS011;7686;52.184;9.280;2023-04-29T10:54:28;4.00;;;1.95;;
15171;SDS011;7686;52.184;9.280;2023-04-29T10:56:55;6.22;;;1.95;;
15171;SDS011;7686;52.184;9.280;2023-04-29T10:59:43;3.08;;;1.95;;
15171;SDS011;7686;52.184;9.280;2023-04-29T11:02:11;4.53;;;1.98;;
15171;SDS011;7686;52.184;9.280;2023-04-29T11:05:05;4.47;;;1.70;;
15171;SDS011;7686;52.184;9.280;2023-04-29T11:07:34;5.53;;;1.65;;
15171;SDS011;7686;52.184;9.280;2023-04-29T11:10:02;4.80;;;1.80;;
15171;SDS011;7686;52.184;9.280;2023-04-29T11:12:28;5.32;;;2.00;;
15171;SDS011;7686;52.184;9.280;2023-04-29T11:14:56;6.90;;;1.70;;
15171;SDS011;7686;52.184;9.280;2023-04-29T11:17:33;5.60;;;1.73;;
15171;SDS011;7686;52.184;9.280;2023-04-29T11:20:02;7.80;;;1.85;;
15171;SDS011;7686;52.184;9.280;2023-04-29T11:22:29;6.07;;;2.17;;
15171;SDS011;7686;52.184;9.280;2023-04-29T11:24:59;3.53;;;1.70;;
15171;SDS011;7686;52.184;9.280;2023-04-29T11:27:40;3.85;;;1.55;;
15171;SDS011;7686;52.184;9.280;2023-04-29T11:30:08;6.70;;;1.88;;
15171;SDS011;7686;52.184;9.280;2023-04-29T11:32:36;4.88;;;1.58;;
15171;SDS011;7686;52.184;9.280;2023-04-29T11:35:15;4.47;;;1.73;;
15171;SDS011;7686;52.184;9.280;2023-04-29T11:37:43;4.05;;;1.73;;
15171;SDS011;7686;52.184;9.280;2023-04-29T11:40:11;2.47;;;1.35;;
15171;SDS011;7686;52.184;9.280;2023-04-29T11:42:39;7.72;;;1.80;;
15171;SDS011;7686;52.184;9.280;2023-04-29T11:45:08;3.47;;;1.70;;
15171;SDS011;7686;52.184;9.280;2023-04-29T11:47:35;4.80;;;1.90;;
15171;SDS011;7686;52.184;9.280;2023-04-29T11:50:03;6.28;;;1.77;;
15171;SDS011;7686;52.184;9.280;2023-04-29T11:52:35;5.53;;;1.70;;
15171;SDS011;7686;52.184;9.280;2023-04-29T11:55:03;4.28;;;1.90;;
15171;SDS011;7686;52.184;9.280;2023-04-29T11:57:31;7.40;;;2.00;;
15171;SDS011;7686;52.184;9.280;2023-04-29T11:59:57;4.70;;;1.77;;
15171;SDS011;7686;52.184;9.280;2023-04-29T12:02:28;7.85;;;1.70;;
15171;SDS011;7686;52.184;9.280;2023-04-29T12:04:57;3.08;;;1.60;;
15171;SDS011;7686;52.184;9.280;2023-04-29T12:07:28;4.95;;;1.85;;
15171;SDS011;7686;52.184;9.280;2023-04-29T12:09:55;4.35;;;1.80;;
15171;SDS011;7686;52.184;9.280;2023-04-29T12:12:22;2.45;;;1.40;;
15171;SDS011;7686;52.184;9.280;2023-04-29T12:14:49;3.03;;;1.70;;
15171;SDS011;7686;52.184;9.280;2023-04-29T12:17:17;5.97;;;1.70;;
15171;SDS011;7686;52.184;9.280;2023-04-29T12:19:44;4.65;;;1.70;;
15171;SDS011;7686;52.184;9.280;2023-04-29T12:22:11;5.32;;;1.65;;
15171;SDS011;7686;52.184;9.280;2023-04-29T12:24:38;4.03;;;1.70;;
15171;SDS011;7686;52.184;9.280;2023-04-29T12:27:08;3.67;;;1.63;;
15171;SDS011;7686;52.184;9.280;2023-04-29T12:29:36;2.65;;;1.30;;
15171;SDS011;7686;52.184;9.280;2023-04-29T12:32:03;4.30;;;1.73;;
15171;SDS011;7686;52.184;9.280;2023-04-29T12:34:31;2.92;;;1.60;;
15171;SDS011;7686;52.184;9.280;2023-04-29T12:36:58;5.22;;;1.85;;
15171;SDS011;7686;52.184;9.280;2023-04-29T12:39:26;3.47;;;1.50;;
15171;SDS011;7686;52.184;9.280;2023-04-29T12:41:54;4.93;;;1.60;;
15171;SDS011;7686;52.184;9.280;2023-04-29T12:44:23;3.53;;;1.52;;
15171;SDS011;7686;52.184;9.280;2023-04-29T12:46:50;3.85;;;1.42;;
15171;SDS011;7686;52.184;9.280;2023-04-29T12:49:23;3.42;;;1.42;;
15171;SDS011;7686;52.184;9.280;2023-04-29T12:51:50;4.70;;;1.63;;
15171;SDS011;7686;52.184;9.280;2023-04-29T12:54:17;3.67;;;1.52;;
15171;SDS011;7686;52.184;9.280;2023-04-29T12:56:43;3.85;;;1.75;;
15171;SDS011;7686;52.184;9.280;2023-04-29T12:59:13;5.53;;;1.63;;
15171;SDS011;7686;52.184;9.280;2023-04-29T13:01:39;4.32;;;1.52;;
15171;SDS011;7686;52.184;9.280;2023-04-29T13:04:06;4.15;;;1.73;;
15171;SDS011;7686;52.184;9.280;2023-04-29T13:06:34;4.50;;;1.83;;
15171;SDS011;7686;52.184;9.280;2023-04-29T13:09:07;6.80;;;1.88;;
15171;SDS011;7686;52.184;9.280;2023-04-29T13:11:43;4.38;;;1.65;;
15171;SDS011;7686;52.184;9.280;2023-04-29T13:14:10;4.32;;;1.48;;
15171;SDS011;7686;52.184;9.280;2023-04-29T13:16:37;6.22;;;1.50;;
15171;SDS011;7686;52.184;9.280;2023-04-29T13:19:03;6.53;;;1.63;;
15171;SDS011;7686;52.184;9.280;2023-04-29T13:21:50;4.57;;;1.52;;
15171;SDS011;7686;52.184;9.280;2023-04-29T13:24:17;4.45;;;1.60;;
15171;SDS011;7686;52.184;9.280;2023-04-29T13:26:45;5.70;;;1.83;;
15171;SDS011;7686;52.184;9.280;2023-04-29T13:29:16;3.58;;;1.70;;
15171;SDS011;7686;52.184;9.280;2023-04-29T13:31:42;4.55;;;1.73;;
15171;SDS011;7686;52.184;9.280;2023-04-29T13:34:09;5.60;;;1.90;;
15171;SDS011;7686;52.184;9.280;2023-04-29T13:36:36;3.70;;;1.40;;
15171;SDS011;7686;52.184;9.280;2023-04-29T13:39:03;4.45;;;1.38;;
15171;SDS011;7686;52.184;9.280;2023-04-29T13:41:29;3.58;;;1.58;;
15171;SDS011;7686;52.184;9.280;2023-04-29T13:44:00;3.92;;;1.67;;
15171;SDS011;7686;52.184;9.280;2023-04-29T13:46:27;3.67;;;1.60;;
15171;SDS011;7686;52.184;9.280;2023-04-29T13:48:56;3.92;;;1.60;;
15171;SDS011;7686;52.184;9.280;2023-04-29T13:51:43;4.43;;;1.63;;
15171;SDS011;7686;52.184;9.280;2023-04-29T13:54:30;4.00;;;1.58;;
15171;SDS011;7686;52.184;9.280;2023-04-29T13:57:00;2.15;;;1.25;;
15171;SDS011;7686;52.184;9.280;2023-04-29T13:59:49;3.13;;;1.35;;
15171;SDS011;7686;52.184;9.280;2023-04-29T14:02:18;3.55;;;1.50;;
15171;SDS011;7686;52.184;9.280;2023-04-29T14:04:48;4.70;;;1.55;;
15171;SDS011;7686;52.184;9.280;2023-04-29T14:07:15;3.95;;;1.42;;
15171;SDS011;7686;52.184;9.280;2023-04-29T14:09:41;3.42;;;1.42;;
15171;SDS011;7686;52.184;9.280;2023-04-29T14:12:08;2.55;;;1.27;;
15171;SDS011;7686;52.184;9.280;2023-04-29T14:14:35;5.20;;;1.50;;
15171;SDS011;7686;52.184;9.280;2023-04-29T14:17:02;3.25;;;1.38;;
15171;SDS011;7686;52.184;9.280;2023-04-29T14:19:28;4.93;;;1.70;;
15171;SDS011;7686;52.184;9.280;2023-04-29T14:21:55;2.63;;;1.40;;
15171;SDS011;7686;52.184;9.280;2023-04-29T14:24:21;4.13;;;1.60;;
15171;SDS011;7686;52.184;9.280;2023-04-29T14:26:48;4.20;;;1.63;;
15171;SDS011;7686;52.184;9.280;2023-04-29T14:29:15;2.78;;;1.40;;
15171;SDS011;7686;52.184;9.280;2023-04-29T14:31:42;2.15;;;1.17;;
15171;SDS011;7686;52.184;9.280;2023-04-29T14:34:09;3.47;;;1.40;;
15171;SDS011;7686;52.184;9.280;2023-04-29T14:36:35;2.85;;;1.27;;
15171;SDS011;7686;52.184;9.280;2023-04-29T14:39:02;2.85;;;1.30;;
15171;SDS011;7686;52.184;9.280;2023-04-29T14:41:29;2.00;;;1.20;;
15171;SDS011;7686;52.184;9.280;2023-04-29T14:43:55;2.10;;;1.15;;
15171;SDS011;7686;52.184;9.280;2023-04-29T14:46:22;2.15;;;1.30;;
15171;SDS011;7686;52.184;9.280;2023-04-29T14:48:50;2.78;;;1.35;;
15171;SDS011;7686;52.184;9.280;2023-04-29T14:51:16;3.05;;;1.10;;
15171;SDS011;7686;52.184;9.280;2023-04-29T14:53:43;4.22;;;1.30;;
15171;SDS011;7686;52.184;9.280;2023-04-29T14:56:10;2.67;;;1.30;;
15171;SDS011;7686;52.184;9.280;2023-04-29T14:58:36;4.43;;;1.60;;
15171;SDS011;7686;52.184;9.280;2023-04-29T15:01:03;2.80;;;1.23;;
15171;SDS011;7686;52.184;9.280;2023-04-29T15:03:29;2.88;;;1.20;;
15171;SDS011;7686;52.184;9.280;2023-04-29T15:05:57;2.63;;;1.20;;
15171;SDS011;7686;52.184;9.280;2023-04-29T15:08:23;2.60;;;1.30;;
15171;SDS011;7686;52.184;9.280;2023-04-29T15:10:50;2.53;;;1.20;;
15171;SDS011;7686;52.184;9.280;2023-04-29T15:13:17;3.38;;;1.40;;
15171;SDS011;7686;52.184;9.280;2023-04-29T15:15:44;2.08;;;1.25;;
15171;SDS011;7686;52.184;9.280;2023-04-29T15:18:10;1.55;;;1.13;;
15171;SDS011;7686;52.184;9.280;2023-04-29T15:20:37;1.95;;;1.10;;
15171;SDS011;7686;52.184;9.280;2023-04-29T15:23:04;2.60;;;1.20;;
15171;SDS011;7686;52.184;9.280;2023-04-29T15:25:31;1.92;;;1.20;;